createdAt,value
2018-09-01T00:01:10.774Z,8.35
2018-09-01T00:04:13.025Z,8.43
2018-09-01T00:07:15.260Z,8.43
2018-09-01T00:10:17.605Z,8.41
2018-09-01T00:13:19.796Z,8.27
2018-09-01T00:16:22.029Z,8.15
2018-09-01T00:19:24.208Z,8.09
2018-09-01T00:22:26.437Z,8.12
2018-09-01T00:25:28.618Z,8.15
2018-09-01T00:28:30.860Z,8.19
2018-09-01T00:31:33.028Z,8.22
2018-09-01T00:34:35.416Z,8.24
2018-09-01T00:37:43.234Z,8.15
2018-09-01T00:40:45.451Z,8.01
2018-09-01T00:43:47.654Z,7.82
2018-09-01T00:46:49.887Z,7.69
2018-09-01T00:49:52.117Z,7.65
2018-09-01T00:52:54.435Z,7.70
2018-09-01T00:55:56.689Z,7.73
2018-09-01T00:58:59.199Z,7.78
2018-09-01T01:02:01.516Z,7.80
2018-09-01T01:05:03.777Z,7.80
2018-09-01T01:08:06.152Z,7.77
2018-09-01T01:11:08.439Z,7.78
2018-09-01T01:14:10.737Z,7.73
2018-09-01T01:17:13.017Z,7.70
2018-09-01T01:20:15.609Z,7.73
2018-09-01T01:23:19.107Z,7.74
2018-09-01T01:26:21.389Z,7.70
2018-09-01T01:29:24.796Z,7.68
2018-09-01T01:32:26.971Z,7.64
2018-09-01T01:35:29.231Z,7.51
2018-09-01T01:38:32.474Z,7.51
2018-09-01T01:41:34.644Z,7.56
2018-09-01T01:44:36.892Z,7.57
2018-09-01T01:47:40.606Z,7.55
2018-09-01T01:50:42.913Z,7.61
2018-09-01T01:53:45.181Z,7.58
2018-09-01T01:56:47.444Z,7.54
2018-09-01T01:59:49.736Z,7.57
2018-09-01T02:02:52.013Z,7.54
2018-09-01T02:05:54.264Z,7.54
2018-09-01T02:08:56.857Z,7.55
2018-09-01T02:11:59.121Z,7.57
2018-09-01T02:15:01.376Z,7.54
2018-09-01T02:18:03.627Z,7.53
2018-09-01T02:21:05.908Z,7.56
2018-09-01T02:24:08.165Z,7.54
2018-09-01T02:27:10.361Z,7.49
2018-09-01T02:30:12.647Z,7.45
2018-09-01T02:33:14.899Z,6.97
2018-09-01T02:36:17.159Z,6.75
2018-09-01T02:39:19.578Z,6.74
2018-09-01T02:42:21.800Z,6.76
2018-09-01T02:45:23.976Z,6.74
2018-09-01T02:48:26.237Z,6.81
2018-09-01T02:51:28.417Z,6.84
2018-09-01T02:54:30.700Z,6.87
2018-09-01T02:57:32.968Z,6.97
2018-09-01T03:00:35.759Z,6.94
2018-09-01T03:03:38.020Z,6.90
2018-09-01T03:06:48.529Z,6.93
2018-09-01T03:09:50.775Z,6.84
2018-09-01T03:12:52.943Z,6.73
2018-09-01T03:15:55.252Z,6.71
2018-09-01T03:18:57.532Z,6.80
2018-09-01T03:21:59.849Z,6.80
2018-09-01T03:25:02.353Z,6.76
2018-09-01T03:28:04.846Z,6.75
2018-09-01T03:31:07.153Z,6.77
2018-09-01T03:34:09.456Z,6.78
2018-09-01T03:37:11.644Z,6.77
2018-09-01T03:40:13.893Z,6.70
2018-09-01T03:43:16.101Z,6.66
2018-09-01T03:46:18.473Z,6.61
2018-09-01T03:49:20.878Z,6.58
2018-09-01T03:52:23.061Z,6.61
2018-09-01T03:55:25.337Z,6.56
2018-09-01T03:58:27.657Z,6.57
2018-09-01T04:01:30.025Z,6.55
2018-09-01T04:04:32.269Z,6.57
2018-09-01T04:07:34.620Z,6.56
2018-09-01T04:10:36.858Z,6.54
2018-09-01T04:13:39.024Z,6.51
2018-09-01T04:16:41.243Z,6.49
2018-09-01T04:19:43.583Z,6.49
2018-09-01T04:22:46.062Z,6.41
2018-09-01T04:25:48.296Z,6.41
2018-09-01T04:28:50.584Z,6.39
2018-09-01T04:31:52.972Z,6.41
2018-09-01T04:34:55.090Z,6.48
2018-09-01T04:37:57.384Z,6.51
2018-09-01T04:40:59.681Z,6.50
2018-09-01T04:44:01.885Z,6.54
2018-09-01T04:47:04.253Z,6.49
2018-09-01T04:50:06.484Z,6.48
2018-09-01T04:53:08.749Z,6.42
2018-09-01T04:56:11.007Z,6.36
2018-09-01T04:59:14.268Z,6.38
2018-09-01T05:02:16.565Z,6.48
2018-09-01T05:05:18.790Z,6.65
2018-09-01T05:08:20.982Z,6.79
2018-09-01T05:11:23.259Z,6.95
2018-09-01T05:14:25.558Z,7.05
2018-09-01T05:17:28.017Z,7.22
2018-09-01T05:20:30.297Z,7.54
2018-09-01T05:23:32.550Z,7.83
2018-09-01T05:26:34.842Z,8.22
2018-09-01T05:29:37.102Z,10.09
2018-09-01T05:32:39.374Z,12.00
2018-09-01T05:35:41.733Z,13.29
2018-09-01T05:38:43.889Z,14.34
2018-09-01T05:41:46.074Z,14.77
2018-09-01T05:44:48.345Z,14.58
2018-09-01T05:47:50.973Z,15.23
2018-09-01T05:50:53.281Z,15.92
2018-09-01T05:53:55.428Z,16.54
2018-09-01T05:56:57.624Z,17.07
2018-09-01T05:59:59.796Z,17.54
2018-09-01T06:03:02.100Z,17.50
2018-09-01T06:06:04.479Z,17.99
2018-09-01T06:09:07.579Z,17.83
2018-09-01T06:12:09.882Z,18.47
2018-09-01T06:15:12.029Z,18.85
2018-09-01T06:18:14.294Z,19.13
2018-09-01T06:21:16.475Z,19.86
2018-09-01T06:24:18.724Z,20.18
2018-09-01T06:27:22.657Z,20.18
2018-09-01T06:30:29.295Z,20.61
2018-09-01T06:33:31.533Z,20.56
2018-09-01T06:36:33.839Z,19.96
2018-09-01T06:39:36.155Z,19.40
2018-09-01T06:42:38.381Z,19.52
2018-09-01T06:45:40.651Z,19.54
2018-09-01T06:48:42.796Z,19.90
2018-09-01T06:51:45.145Z,19.93
2018-09-01T06:54:47.255Z,19.78
2018-09-01T06:57:49.412Z,20.56
2018-09-01T07:00:51.549Z,20.19
2018-09-01T07:03:53.781Z,20.63
2018-09-01T07:06:56.188Z,20.18
2018-09-01T07:09:58.973Z,20.57
2018-09-01T07:13:01.215Z,21.01
2018-09-01T07:16:03.557Z,21.36
2018-09-01T07:19:05.760Z,21.41
2018-09-01T07:22:08.516Z,22.16
2018-09-01T07:25:11.764Z,21.60
2018-09-01T07:28:13.906Z,21.30
2018-09-01T07:31:20.422Z,20.41
2018-09-01T07:34:22.569Z,19.89
2018-09-01T07:37:24.872Z,19.52
2018-09-01T07:40:27.108Z,18.94
2018-09-01T07:43:29.326Z,18.97
2018-09-01T07:46:31.578Z,19.04
2018-09-01T07:49:33.779Z,18.81
2018-09-01T07:52:36.228Z,18.76
2018-09-01T07:55:38.421Z,18.13
2018-09-01T07:58:40.709Z,18.25
2018-09-01T08:01:42.970Z,18.60
2018-09-01T08:04:45.336Z,17.87
2018-09-01T08:07:47.571Z,17.47
2018-09-01T08:10:50.007Z,17.26
2018-09-01T08:17:11.399Z,17.61
2018-09-01T08:20:13.599Z,17.58
2018-09-01T08:23:19.524Z,17.35
2018-09-01T08:26:22.189Z,17.21
2018-09-01T08:29:24.775Z,17.21
2018-09-01T08:32:27.003Z,17.07
2018-09-01T08:35:29.268Z,16.88
2018-09-01T08:38:32.756Z,17.34
2018-09-01T08:41:35.150Z,17.89
2018-09-01T08:44:37.448Z,17.51
2018-09-01T08:47:39.763Z,17.27
2018-09-01T08:50:42.057Z,17.69
2018-09-01T08:53:44.315Z,17.65
2018-09-01T08:56:46.484Z,17.94
2018-09-01T08:59:48.663Z,17.87
2018-09-01T09:02:50.956Z,17.62
2018-09-01T09:05:54.327Z,17.93
2018-09-01T09:08:56.653Z,18.37
2018-09-01T09:11:58.855Z,18.19
2018-09-01T09:15:01.145Z,17.77
2018-09-01T09:18:03.464Z,17.72
2018-09-01T09:21:05.701Z,17.81
2018-09-01T09:24:08.048Z,18.66
2018-09-01T09:27:10.245Z,18.64
2018-09-01T09:30:12.755Z,18.87
2018-09-01T09:33:14.950Z,18.59
2018-09-01T09:36:17.203Z,18.81
2018-09-01T09:39:20.224Z,19.41
2018-09-01T09:42:22.459Z,20.06
2018-09-01T09:45:24.717Z,20.64
2018-09-01T09:48:27.043Z,20.62
2018-09-01T09:51:29.380Z,19.73
2018-09-01T09:54:31.942Z,20.03
2018-09-01T09:57:34.160Z,20.72
2018-09-01T10:00:42.048Z,20.64
2018-09-01T10:03:44.291Z,20.61
2018-09-01T10:06:46.596Z,20.64
2018-09-01T10:09:48.969Z,21.01
2018-09-01T10:12:51.196Z,20.44
2018-09-01T10:15:53.561Z,21.01
2018-09-01T10:18:56.088Z,21.18
2018-09-01T10:22:05.333Z,20.91
2018-09-01T10:25:07.620Z,20.61
2018-09-01T10:28:09.787Z,20.67
2018-09-01T10:31:12.067Z,20.99
2018-09-01T10:34:14.276Z,20.67
2018-09-01T10:37:16.572Z,21.06
2018-09-01T10:40:18.987Z,20.62
2018-09-01T10:43:21.404Z,21.19
2018-09-01T10:46:23.704Z,21.64
2018-09-01T10:49:26.195Z,22.24
2018-09-01T10:52:28.384Z,22.36
2018-09-01T10:55:30.654Z,22.66
2018-09-01T10:58:33.015Z,22.57
2018-09-01T11:01:35.287Z,22.83
2018-09-01T11:04:37.477Z,22.31
2018-09-01T11:07:39.622Z,22.01
2018-09-01T11:10:41.913Z,21.99
2018-09-01T11:13:44.178Z,22.31
2018-09-01T11:16:46.618Z,22.14
2018-09-01T11:19:49.080Z,22.49
2018-09-01T11:22:51.583Z,21.56
2018-09-01T11:25:53.758Z,20.72
2018-09-01T11:28:55.953Z,20.93
2018-09-01T11:31:58.282Z,21.75
2018-09-01T11:35:00.466Z,22.27
2018-09-01T11:38:02.731Z,21.45
2018-09-01T11:41:05.274Z,21.88
2018-09-01T11:44:07.511Z,22.55
2018-09-01T11:47:09.697Z,22.14
2018-09-01T11:50:12.041Z,22.65
2018-09-01T11:53:14.339Z,22.25
2018-09-01T11:56:16.774Z,22.63
2018-09-01T11:59:19.134Z,22.88
2018-09-01T12:02:21.470Z,22.85
2018-09-01T12:05:23.652Z,23.44
2018-09-01T12:08:28.191Z,24.21
2018-09-01T12:11:30.508Z,23.79
2018-09-01T12:14:32.894Z,23.60
2018-09-01T12:17:35.227Z,22.90
2018-09-01T12:20:37.521Z,21.71
2018-09-01T12:23:39.813Z,21.88
2018-09-01T12:26:42.150Z,21.30
2018-09-01T12:29:45.422Z,21.14
2018-09-01T12:32:47.659Z,20.82
2018-09-01T12:35:49.997Z,20.69
2018-09-01T12:38:52.208Z,20.57
2018-09-01T12:41:54.560Z,20.61
2018-09-01T12:44:56.946Z,21.42
2018-09-01T12:47:59.577Z,21.04
2018-09-01T12:51:01.959Z,21.05
2018-09-01T12:54:04.235Z,21.55
2018-09-01T12:57:06.615Z,21.49
2018-09-01T13:00:09.015Z,21.74
2018-09-01T13:03:11.274Z,21.81
2018-09-01T13:06:13.460Z,22.30
2018-09-01T13:09:15.844Z,23.06
2018-09-01T13:12:18.181Z,22.03
2018-09-01T13:15:20.442Z,21.98
2018-09-01T13:18:22.689Z,21.64
2018-09-01T13:21:24.942Z,22.22
2018-09-01T13:24:27.261Z,23.05
2018-09-01T13:27:29.809Z,23.55
2018-09-01T13:30:32.251Z,23.26
2018-09-01T13:33:34.793Z,22.45
2018-09-01T13:36:36.993Z,21.89
2018-09-01T13:39:39.159Z,21.88
2018-09-01T13:42:41.361Z,21.93
2018-09-01T13:45:43.611Z,22.14
2018-09-01T13:48:46.995Z,22.19
2018-09-01T13:51:49.224Z,23.03
2018-09-01T13:54:52.471Z,23.02
2018-09-01T13:57:54.824Z,22.98
2018-09-01T14:00:58.089Z,24.19
2018-09-01T14:04:00.326Z,24.21
2018-09-01T14:07:02.670Z,24.46
2018-09-01T14:10:05.578Z,24.53
2018-09-01T14:13:07.893Z,24.91
2018-09-01T14:16:10.263Z,24.42
2018-09-01T14:19:12.592Z,24.73
2018-09-01T14:22:15.935Z,24.03
2018-09-01T14:25:18.215Z,24.03
2018-09-01T14:28:20.771Z,24.88
2018-09-01T14:31:22.957Z,25.36
2018-09-01T14:34:25.270Z,25.89
2018-09-01T14:37:27.524Z,26.24
2018-09-01T14:40:29.708Z,26.30
2018-09-01T14:43:31.958Z,25.84
2018-09-01T14:46:34.307Z,24.70
2018-09-01T14:49:36.646Z,24.53
2018-09-01T14:52:40.038Z,24.28
2018-09-01T14:56:13.172Z,23.75
2018-09-01T14:59:15.465Z,23.84
2018-09-01T15:02:18.434Z,23.80
2018-09-01T15:05:20.869Z,23.42
2018-09-01T15:08:23.122Z,23.37
2018-09-01T15:11:25.516Z,24.20
2018-09-01T15:14:27.720Z,24.75
2018-09-01T15:17:29.947Z,25.00
2018-09-01T15:20:32.302Z,24.98
2018-09-01T15:23:34.620Z,25.00
2018-09-01T15:26:36.895Z,24.77
2018-09-01T15:29:39.094Z,24.88
2018-09-01T15:32:41.466Z,24.45
2018-09-01T15:35:43.655Z,24.66
2018-09-01T15:38:46.924Z,24.83
2018-09-01T15:41:49.159Z,25.26
2018-09-01T15:44:51.552Z,25.32
2018-09-01T15:47:53.866Z,24.97
2018-09-01T15:50:56.210Z,24.96
2018-09-01T15:53:58.634Z,24.96
2018-09-01T15:57:01.116Z,24.36
2018-09-01T16:00:03.408Z,24.09
2018-09-01T16:03:05.755Z,24.33
2018-09-01T16:06:08.005Z,23.93
2018-09-01T16:09:10.424Z,23.92
2018-09-01T16:12:12.812Z,23.04
2018-09-01T16:15:15.045Z,22.44
2018-09-01T16:18:17.329Z,22.93
2018-09-01T16:21:19.733Z,23.77
2018-09-01T16:24:21.953Z,23.83
2018-09-01T16:27:24.187Z,23.58
2018-09-01T16:30:26.629Z,22.80
2018-09-01T16:33:29.229Z,22.12
2018-09-01T16:36:31.547Z,21.77
2018-09-01T16:39:33.853Z,21.48
2018-09-01T16:42:36.090Z,21.51
2018-09-01T16:45:38.345Z,22.29
2018-09-01T16:48:40.748Z,22.43
2018-09-01T16:51:42.944Z,22.64
2018-09-01T16:54:45.343Z,22.99
2018-09-01T16:57:47.784Z,22.96
2018-09-01T17:00:55.883Z,23.39
2018-09-01T17:03:58.143Z,23.39
2018-09-01T17:07:00.276Z,23.53
2018-09-01T17:10:03.677Z,23.51
2018-09-01T17:13:05.910Z,23.28
2018-09-01T17:16:08.208Z,22.97
2018-09-01T17:19:10.376Z,22.66
2018-09-01T17:22:12.767Z,22.57
2018-09-01T17:25:14.981Z,22.53
2018-09-01T17:28:17.296Z,22.53
2018-09-01T17:31:19.592Z,22.44
2018-09-01T17:34:21.922Z,22.32
2018-09-01T17:37:24.135Z,22.17
2018-09-01T17:40:26.347Z,22.14
2018-09-01T17:43:28.600Z,21.86
2018-09-01T17:46:30.906Z,21.51
2018-09-01T17:49:33.224Z,21.17
2018-09-01T17:52:35.445Z,20.78
2018-09-01T17:55:37.651Z,20.30
2018-09-01T17:58:39.944Z,19.77
2018-09-01T18:01:42.201Z,19.23
2018-09-01T18:04:44.492Z,18.68
2018-09-01T18:07:51.329Z,18.14
2018-09-01T18:10:53.777Z,17.66
2018-09-01T18:13:56.112Z,17.20
2018-09-01T18:16:58.446Z,16.83
2018-09-01T18:20:00.951Z,16.52
2018-09-01T18:23:03.719Z,16.20
2018-09-01T18:26:06.217Z,15.85
2018-09-01T18:29:08.715Z,15.56
2018-09-01T18:32:10.954Z,15.33
2018-09-01T18:35:13.313Z,15.19
2018-09-01T18:38:18.764Z,15.11
2018-09-01T18:41:21.173Z,14.90
2018-09-01T18:44:23.594Z,14.65
2018-09-01T18:47:25.843Z,14.44
2018-09-01T18:50:28.074Z,14.30
2018-09-01T18:53:30.282Z,14.22
2018-09-01T18:56:32.595Z,14.16
2018-09-01T18:59:34.968Z,14.07
2018-09-01T19:02:37.231Z,14.01
2018-09-01T19:05:39.508Z,13.90
2018-09-01T19:08:42.186Z,13.83
2018-09-01T19:11:44.337Z,13.78
2018-09-01T19:14:46.537Z,13.68
2018-09-01T19:17:48.788Z,13.56
2018-09-01T19:20:51.025Z,13.42
2018-09-01T19:23:53.375Z,13.32
2018-09-01T19:26:55.704Z,13.23
2018-09-01T19:29:57.939Z,13.08
2018-09-01T19:33:00.211Z,12.99
2018-09-01T19:36:02.422Z,12.85
2018-09-01T19:39:07.399Z,12.57
2018-09-01T19:42:09.745Z,12.33
2018-09-01T19:45:12.142Z,12.17
2018-09-01T19:48:14.377Z,12.16
2018-09-01T19:51:16.647Z,12.07
2018-09-01T19:54:19.930Z,11.94
2018-09-01T19:57:22.142Z,11.81
2018-09-01T20:00:24.433Z,11.65
2018-09-01T20:03:26.693Z,11.40
2018-09-01T20:06:29.011Z,11.21
2018-09-01T20:09:31.397Z,11.05
2018-09-01T20:12:33.817Z,11.10
2018-09-01T20:15:36.160Z,10.96
2018-09-01T20:18:38.542Z,10.90
2018-09-01T20:21:40.864Z,10.85
2018-09-01T20:24:43.271Z,10.88
2018-09-01T20:27:45.538Z,11.05
2018-09-01T20:30:47.753Z,11.16
2018-09-01T20:33:50.119Z,11.11
2018-09-01T20:36:52.540Z,11.01
2018-09-01T20:39:54.911Z,11.00
2018-09-01T20:42:57.293Z,10.89
2018-09-01T20:46:00.675Z,10.89
2018-09-01T20:49:02.900Z,10.83
2018-09-01T20:52:05.275Z,10.74
2018-09-01T20:55:07.695Z,10.69
2018-09-01T20:58:10.673Z,10.60
2018-09-01T21:01:12.992Z,10.55
2018-09-01T21:04:15.136Z,10.49
2018-09-01T21:07:17.472Z,10.47
2018-09-01T21:10:19.743Z,10.45
2018-09-01T21:13:21.872Z,10.41
2018-09-01T21:16:24.137Z,10.33
2018-09-01T21:19:26.338Z,10.34
2018-09-01T21:22:28.560Z,10.32
2018-09-01T21:25:30.841Z,10.29
2018-09-01T21:28:33.185Z,10.28
2018-09-01T21:31:36.492Z,10.24
2018-09-01T21:34:41.905Z,10.18
2018-09-01T21:37:45.247Z,10.13
2018-09-01T21:40:48.448Z,10.05
2018-09-01T21:43:50.796Z,10.00
2018-09-01T21:46:53.040Z,9.98
2018-09-01T21:49:55.404Z,9.90
2018-09-01T21:52:59.748Z,9.86
2018-09-01T21:56:02.112Z,9.79
2018-09-01T21:59:04.365Z,9.74
2018-09-01T22:02:12.137Z,9.71
2018-09-01T22:05:18.127Z,9.72
2018-09-01T22:08:21.311Z,9.80
2018-09-01T22:11:23.593Z,9.80
2018-09-01T22:14:25.958Z,9.78
2018-09-01T22:17:28.129Z,9.76
2018-09-01T22:20:30.481Z,9.72
2018-09-01T22:23:32.768Z,9.67
2018-09-01T22:26:34.973Z,9.55
2018-09-01T22:29:37.172Z,9.39
2018-09-01T22:32:39.484Z,9.27
2018-09-01T22:35:41.691Z,9.20
2018-09-01T22:38:43.948Z,9.22
2018-09-01T22:41:47.208Z,9.22
2018-09-01T22:44:49.395Z,9.21
2018-09-01T22:47:51.751Z,9.20
2018-09-01T22:50:54.959Z,9.18
2018-09-01T22:53:57.156Z,9.16
2018-09-01T22:56:59.350Z,9.20
2018-09-01T23:00:01.615Z,9.21
2018-09-01T23:03:03.941Z,9.22
2018-09-01T23:06:06.249Z,9.22
2018-09-01T23:09:08.800Z,9.20
2018-09-01T23:12:11.099Z,9.17
2018-09-01T23:15:13.322Z,9.11
2018-09-01T23:18:15.493Z,9.04
2018-09-01T23:21:17.659Z,8.94
2018-09-01T23:24:19.839Z,8.73
2018-09-01T23:27:25.406Z,8.70
2018-09-01T23:30:27.724Z,8.64
2018-09-01T23:33:30.025Z,8.55
2018-09-01T23:36:32.302Z,8.58
2018-09-01T23:39:34.596Z,8.64
2018-09-01T23:42:36.872Z,8.69
2018-09-01T23:45:39.246Z,8.72
2018-09-01T23:48:41.477Z,8.75
2018-09-01T23:51:43.659Z,8.79
2018-09-01T23:54:45.933Z,8.74
2018-09-01T23:57:48.112Z,8.72
